Time;durP1;ratioP1;P1;durP2;ratioP2;P2;SDS_P1;SDS_P2;PMS_P1;PMS_P2;Temp;Humidity;BMP_temperature;BMP_pressure;BME280_temperature;BME280_humidity;BME280_pressure;Samples;Min_cycle;Max_cycle;Signal;HPM_P1;HPM_P2
2023/09/26 00:05:03;;;;;;;;;;;;;;;10.61;100.00;96319.47;10534789;28;1984;-75
2023/09/26 00:10:18;;;;;;;;;;;;;;;10.71;100.00;96318.75;10524614;28;1752;-77
2023/09/26 00:15:30;;;;;;;;;;;;;;;10.74;100.00;96312.81;10522360;28;1893;-75
2023/09/26 00:20:37;;;;;;;;;;;;;;;10.64;100.00;96305.53;10516568;28;1970;-74
2023/09/26 00:25:40;;;;;;;;;;;;;;;10.68;100.00;96303.91;10528110;28;2133;-75
2023/09/26 00:30:47;;;;;;;;;;;;;;;10.67;100.00;96306.88;10531467;28;2716;-74
2023/09/26 00:35:51;;;;;;;;;;;;;;;10.63;100.00;96297.72;10513342;28;1851;-76
2023/09/26 00:40:54;;;;;;;;;;;;;;;10.53;100.00;96296.59;10529130;28;1962;-73
2023/09/26 00:45:57;;;;;;;;;;;;;;;10.53;100.00;96303.84;10513881;28;1997;-75
2023/09/26 00:51:08;;;;;;;;;;;;;;;10.51;100.00;96301.44;10518142;28;1922;-74
2023/09/26 00:56:11;;;;;;;;;;;;;;;10.44;100.00;96305.41;10530740;28;1931;-74
2023/09/26 01:01:14;;;;;;;;;;;;;;;10.39;100.00;96295.44;10520659;28;1903;-75
2023/09/26 01:06:30;;;;;;;;;;;;;;;10.35;100.00;96288.94;10529694;28;2043;-76
2023/09/26 01:11:38;;;;;;;;;;;;;;;10.32;100.00;96294.06;10537201;28;1940;-75
2023/09/26 01:16:43;;;;;;;;;;;;;;;10.38;100.00;96287.63;10530773;28;2394;-76
2023/09/26 01:21:57;;;;;;;;;;;;;;;10.47;100.00;96286.88;10526588;28;1944;-78
2023/09/26 01:27:02;;;;;;;;;;;;;;;10.34;100.00;96281.16;10525750;28;1962;-76
2023/09/26 01:32:07;;;;;;;;;;;;;;;10.39;100.00;96283.88;10527504;28;1966;-76
2023/09/26 01:37:11;;;;;;;;;;;;;;;10.33;100.00;96279.53;10509188;28;1926;-75
2023/09/26 01:42:15;;;;;;;;;;;;;;;10.26;100.00;96279.78;10523322;28;2020;-75
2023/09/26 01:47:21;;;;;;;;;;;;;;;10.23;100.00;96282.97;10523394;28;2000;-74
2023/09/26 01:52:28;;;;;;;;;;;;;;;10.15;100.00;96284.22;10523829;28;1913;-76
2023/09/26 01:57:32;;;;;;;;;;;;;;;10.13;100.00;96282.88;10529915;28;1948;-74
2023/09/26 02:02:39;;;;;;;;;;;;;;;10.10;100.00;96270.75;10510393;28;2115;-73
2023/09/26 02:07:42;;;;;;;;;;;;;;;10.10;100.00;96270.75;10506133;28;2238;-74
2023/09/26 02:12:47;;;;;;;;;;;;;;;10.06;100.00;96275.03;10505412;28;1844;-74
2023/09/26 02:17:53;;;;;;;;;;;;;;;10.04;100.00;96277.16;10485961;28;2732;-73
2023/09/26 02:23:08;;;;;;;;;;;;;;;10.03;100.00;96276.34;10524632;28;1910;-74
2023/09/26 02:28:16;;;;;;;;;;;;;;;9.95;100.00;96284.06;10491207;28;1875;-75
2023/09/26 02:33:22;;;;;;;;;;;;;;;9.88;100.00;96280.81;10504124;28;1771;-73
2023/09/26 02:38:26;;;;;;;;;;;;;;;9.74;100.00;96278.53;10506031;28;1866;-72
2023/09/26 02:43:30;;;;;;;;;;;;;;;9.67;100.00;96277.94;10521294;28;4623;-72
2023/09/26 02:48:35;;;;;;;;;;;;;;;9.62;100.00;96277.91;10528287;28;1892;-74
2023/09/26 02:53:42;;;;;;;;;;;;;;;9.55;100.00;96276.50;10525867;28;1986;-73
2023/09/26 02:58:46;;;;;;;;;;;;;;;9.51;100.00;96278.06;10526498;28;2110;-74
2023/09/26 03:03:52;;;;;;;;;;;;;;;9.41;100.00;96270.72;10506497;28;3036;-73
2023/09/26 03:09:01;;;;;;;;;;;;;;;9.34;100.00;96267.41;10507735;28;1863;-76
2023/09/26 03:14:07;;;;;;;;;;;;;;;9.32;100.00;96258.81;10525548;28;1928;-75
2023/09/26 03:19:16;;;;;;;;;;;;;;;9.28;100.00;96253.16;10525292;28;1915;-77
2023/09/26 03:24:19;;;;;;;;;;;;;;;9.26;100.00;96254.47;10525411;28;1985;-76
2023/09/26 03:29:23;;;;;;;;;;;;;;;9.17;100.00;96246.06;10524135;28;1936;-77
2023/09/26 03:34:27;;;;;;;;;;;;;;;9.11;100.00;96242.53;10526298;28;1875;-74
2023/09/26 03:39:31;;;;;;;;;;;;;;;9.07;100.00;96243.28;10522850;28;2010;-75
2023/09/26 03:44:40;;;;;;;;;;;;;;;9.11;100.00;96247.91;10520148;28;4618;-75
2023/09/26 03:49:45;;;;;;;;;;;;;;;9.16;100.00;96247.13;10521818;28;1841;-76
2023/09/26 03:55:02;;;;;;;;;;;;;;;9.12;100.00;96243.34;10525258;28;1850;-75
2023/09/26 04:00:15;;;;;;;;;;;;;;;9.18;100.00;96248.50;10523736;28;2875;-75
2023/09/26 04:05:18;;;;;;;;;;;;;;;9.25;100.00;96247.50;10524140;28;1910;-75
2023/09/26 04:10:22;;;;;;;;;;;;;;;9.26;100.00;96251.78;10502884;28;1848;-73
2023/09/26 04:15:28;;;;;;;;;;;;;;;9.36;100.00;96250.03;10521408;28;1826;-75
2023/09/26 04:20:32;;;;;;;;;;;;;;;9.34;100.00;96246.75;10491845;28;1888;-74
2023/09/26 04:25:41;;;;;;;;;;;;;;;9.26;100.00;96243.75;10519980;28;1911;-74
2023/09/26 04:30:49;;;;;;;;;;;;;;;9.14;100.00;96252.75;10504061;28;1885;-74
2023/09/26 04:35:57;;;;;;;;;;;;;;;9.12;100.00;96249.50;10495706;28;1798;-73
2023/09/26 04:41:05;;;;;;;;;;;;;;;9.09;100.00;96239.28;10507767;28;4703;-73
2023/09/26 04:46:12;;;;;;;;;;;;;;;9.05;100.00;96242.72;10524607;28;1975;-73
2023/09/26 04:51:16;;;;;;;;;;;;;;;9.06;100.00;96241.66;10511691;28;1787;-73
2023/09/26 04:56:19;;;;;;;;;;;;;;;9.05;100.00;96248.91;10531947;28;1758;-72
2023/09/26 05:01:26;;;;;;;;;;;;;;;9.03;100.00;96251.00;10532985;28;2578;-77
2023/09/26 05:06:35;;;;;;;;;;;;;;;9.02;100.00;96252.06;10511387;28;1985;-75
2023/09/26 05:11:40;;;;;;;;;;;;;;;9.03;100.00;96251.00;10508753;28;1851;-73
2023/09/26 05:16:44;;;;;;;;;;;;;;;9.03;100.00;96253.69;10530376;28;1913;-75
2023/09/26 05:21:51;;;;;;;;;;;;;;;9.11;100.00;96257.81;10494372;28;1768;-74
2023/09/26 05:26:55;;;;;;;;;;;;;;;9.24;100.00;96256.59;10506158;28;1975;-73
2023/09/26 05:32:00;;;;;;;;;;;;;;;9.41;100.00;96254.59;10528667;28;1928;-75
2023/09/26 05:37:13;;;;;;;;;;;;;;;9.59;100.00;96243.50;10528419;28;1892;-76
2023/09/26 05:42:30;;;;;;;;;;;;;;;9.81;100.00;96248.00;10506568;28;4663;-76
2023/09/26 05:48:09;;;;;;;;;;;;;;;10.03;100.00;96254.06;10529019;28;1911;-76
2023/09/26 05:53:38;;;;;;;;;;;;;;;10.20;100.00;96253.91;10512364;28;1849;-78
2023/09/26 05:58:42;;;;;;;;;;;;;;;10.44;100.00;96255.16;10529619;28;1788;-76
2023/09/26 06:03:46;;;;;;;;;;;;;;;10.58;100.00;96255.50;10524537;28;2647;-76
2023/09/26 06:14:21;;;;;;;;;;;;;;;10.85;100.00;96260.72;10527914;28;2144;-77
2023/09/26 06:19:27;;;;;;;;;;;;;;;11.02;100.00;96257.81;10512715;28;1735;-77
2023/09/26 06:24:46;;;;;;;;;;;;;;;11.02;100.00;96249.75;10525835;28;1973;-78
2023/09/26 06:29:52;;;;;;;;;;;;;;;11.17;100.00;96252.47;10524802;28;1888;-76
2023/09/26 06:35:00;;;;;;;;;;;;;;;11.45;100.00;96253.06;10512390;28;2019;-76
2023/09/26 06:40:06;;;;;;;;;;;;;;;11.33;100.00;96251.44;10521868;28;4611;-76
2023/09/26 06:45:16;;;;;;;;;;;;;;;11.43;100.00;96247.16;10519957;28;1999;-76
2023/09/26 06:50:33;;;;;;;;;;;;;;;11.55;100.00;96255.78;10523560;28;2726;-77
2023/09/26 06:55:44;;;;;;;;;;;;;;;11.65;100.00;96258.50;10523803;28;1890;-77
2023/09/26 07:00:51;;;;;;;;;;;;;;;11.66;100.00;96257.41;10522086;28;1940;-77
2023/09/26 07:06:02;;;;;;;;;;;;;;;11.85;100.00;96252.31;10521937;28;2041;-77
2023/09/26 07:11:15;;;;;;;;;;;;;;;12.05;100.00;96252.31;10522924;28;1918;-76
2023/09/26 07:16:22;;;;;;;;;;;;;;;12.07;100.00;96249.34;10524401;28;2044;-77
2023/09/26 07:21:35;;;;;;;;;;;;;;;12.23;100.00;96253.66;10507137;28;2037;-75
2023/09/26 07:26:42;;;;;;;;;;;;;;;12.49;100.00;96265.19;10509031;28;1922;-76
2023/09/26 07:31:49;;;;;;;;;;;;;;;12.63;100.00;96255.44;10527008;28;2279;-76
2023/09/26 07:36:57;;;;;;;;;;;;;;;12.68;100.00;96260.00;10511430;28;1908;-76
2023/09/26 07:42:03;;;;;;;;;;;;;;;12.86;100.00;96259.41;10505700;28;4710;-75
2023/09/26 07:47:14;;;;;;;;;;;;;;;12.99;100.00;96261.50;10508800;28;2600;-77
2023/09/26 07:52:22;;;;;;;;;;;;;;;13.36;100.00;96256.75;10522816;28;1882;-78
2023/09/26 07:57:36;;;;;;;;;;;;;;;13.68;100.00;96251.69;10524086;28;1891;-76
2023/09/26 08:02:40;;;;;;;;;;;;;;;13.95;100.00;96250.41;10524081;28;1905;-76
2023/09/26 08:07:48;;;;;;;;;;;;;;;14.22;100.00;96249.88;10527376;28;1922;-75
2023/09/26 08:12:51;;;;;;;;;;;;;;;14.37;100.00;96247.03;10521849;28;1826;-76
2023/09/26 08:17:54;;;;;;;;;;;;;;;14.57;100.00;96252.28;10529214;28;1959;-77
2023/09/26 08:22:58;;;;;;;;;;;;;;;14.80;100.00;96249.84;10511989;28;1923;-77
2023/09/26 08:33:21;;;;;;;;;;;;;;;15.17;100.00;96256.44;10530238;28;2415;-76
2023/09/26 08:38:29;;;;;;;;;;;;;;;15.48;100.00;96244.09;10532257;28;2158;-77
2023/09/26 08:43:35;;;;;;;;;;;;;;;15.66;100.00;96245.22;10532779;28;4789;-78
2023/09/26 08:48:43;;;;;;;;;;;;;;;15.73;100.00;96247.56;10531570;28;1848;-76
2023/09/26 08:53:50;;;;;;;;;;;;;;;15.66;100.00;96246.03;10512528;28;1869;-77
2023/09/26 08:58:58;;;;;;;;;;;;;;;15.91;100.00;96244.81;10530632;28;1794;-77
2023/09/26 09:04:03;;;;;;;;;;;;;;;16.20;100.00;96246.50;10533230;28;1914;-76
2023/09/26 09:09:09;;;;;;;;;;;;;;;16.22;100.00;96238.84;10512511;28;1868;-77
2023/09/26 09:14:18;;;;;;;;;;;;;;;16.25;100.00;96237.47;10517268;28;2151;-77
2023/09/26 09:19:22;;;;;;;;;;;;;;;16.35;100.00;96229.97;10517090;28;1724;-74
2023/09/26 09:24:27;;;;;;;;;;;;;;;16.32;100.00;96230.56;10509405;28;1926;-77
2023/09/26 09:29:32;;;;;;;;;;;;;;;16.38;100.00;96223.13;10513005;28;1820;-77
2023/09/26 09:34:44;;;;;;;;;;;;;;;16.59;100.00;96218.91;10524940;28;2711;-77
2023/09/26 09:45:20;;;;;;;;;;;;;;;16.77;100.00;96209.09;10529395;28;2005;-76
2023/09/26 09:50:27;;;;;;;;;;;;;;;16.83;100.00;96205.19;10509794;28;1920;-75
2023/09/26 09:55:35;;;;;;;;;;;;;;;16.87;100.00;96197.25;10505279;28;1844;-75
2023/09/26 10:00:41;;;;;;;;;;;;;;;16.97;100.00;96205.97;10528304;28;1827;-76
2023/09/26 10:05:47;;;;;;;;;;;;;;;17.18;100.00;96200.13;10524768;28;1918;-77
2023/09/26 10:10:53;;;;;;;;;;;;;;;17.31;100.00;96202.00;10508444;28;1915;-76
2023/09/26 10:16:00;;;;;;;;;;;;;;;17.23;100.00;96199.97;10512478;28;1820;-76
2023/09/26 10:21:09;;;;;;;;;;;;;;;17.44;100.00;96194.91;10507777;28;2901;-73
2023/09/26 10:26:15;;;;;;;;;;;;;;;17.39;100.00;96186.88;10509052;28;1902;-76
2023/09/26 10:31:18;;;;;;;;;;;;;;;17.69;100.00;96190.81;10527213;28;1822;-77
2023/09/26 10:36:24;;;;;;;;;;;;;;;17.94;100.00;96194.81;10521457;28;1881;-75
2023/09/26 10:41:30;;;;;;;;;;;;;;;18.06;100.00;96189.63;10506237;28;4596;-76
2023/09/26 10:46:33;;;;;;;;;;;;;;;17.89;100.00;96181.38;10522833;28;2031;-79
2023/09/26 10:51:40;;;;;;;;;;;;;;;18.21;100.00;96175.63;10526179;28;1674;-77
2023/09/26 10:56:44;;;;;;;;;;;;;;;18.26;100.00;96172.78;10521153;28;1892;-77
2023/09/26 11:01:49;;;;;;;;;;;;;;;18.40;100.00;96171.88;10524480;28;1970;-77
2023/09/26 11:06:53;;;;;;;;;;;;;;;18.46;100.00;96181.53;10523628;28;2852;-77
2023/09/26 11:12:00;;;;;;;;;;;;;;;18.54;100.00;96178.03;10506444;28;1886;-76
2023/09/26 11:17:04;;;;;;;;;;;;;;;18.60;100.00;96166.69;10524946;28;1891;-77
2023/09/26 11:22:09;;;;;;;;;;;;;;;18.50;100.00;96164.22;10506872;28;1857;-77
2023/09/26 11:27:12;;;;;;;;;;;;;;;18.56;100.00;96167.63;10482834;28;2019;-75
2023/09/26 11:32:18;;;;;;;;;;;;;;;18.67;100.00;96155.34;10523620;28;1838;-75
2023/09/26 11:37:25;;;;;;;;;;;;;;;18.84;100.00;96149.97;10504721;28;1898;-76
2023/09/26 11:42:28;;;;;;;;;;;;;;;18.87;100.00;96143.88;10506021;28;1879;-77
2023/09/26 11:47:34;;;;;;;;;;;;;;;19.01;100.00;96146.44;10522902;28;1991;-75
2023/09/26 11:52:41;;;;;;;;;;;;;;;19.12;100.00;96144.22;10519194;28;2810;-76
2023/09/26 11:57:45;;;;;;;;;;;;;;;19.00;100.00;96135.88;10508764;28;1813;-77
2023/09/26 12:02:49;;;;;;;;;;;;;;;19.07;100.00;96136.19;10523120;28;1851;-76
2023/09/26 12:08:00;;;;;;;;;;;;;;;19.21;100.00;96123.22;10522871;28;1975;-76
2023/09/26 12:13:15;;;;;;;;;;;;;;;19.25;100.00;96134.31;10520804;28;1915;-75
2023/09/26 12:18:21;;;;;;;;;;;;;;;19.17;100.00;96127.72;10524057;28;1872;-76
2023/09/26 12:23:33;;;;;;;;;;;;;;;19.39;100.00;96115.84;10525809;28;1882;-74
2023/09/26 12:28:48;;;;;;;;;;;;;;;19.35;100.00;96115.72;10503162;28;1984;-77
2023/09/26 12:33:55;;;;;;;;;;;;;;;19.29;100.00;96106.09;10506252;28;1832;-76
2023/09/26 12:39:00;;;;;;;;;;;;;;;19.30;100.00;96106.91;10504886;28;1855;-76
2023/09/26 12:44:09;;;;;;;;;;;;;;;19.41;100.00;96102.72;10523925;28;4731;-76
2023/09/26 12:49:16;;;;;;;;;;;;;;;19.53;100.00;96096.59;10520865;28;2552;-75
2023/09/26 12:54:23;;;;;;;;;;;;;;;19.64;100.00;96095.19;10503037;28;1886;-74
2023/09/26 12:59:34;;;;;;;;;;;;;;;19.75;100.00;96091.00;10524272;28;1903;-74
2023/09/26 13:04:43;;;;;;;;;;;;;;;19.67;100.00;96086.34;10507951;28;1865;-75
2023/09/26 13:09:47;;;;;;;;;;;;;;;19.61;100.00;96079.47;10505057;28;1880;-75
2023/09/26 13:14:57;;;;;;;;;;;;;;;19.76;100.00;96075.41;10504089;28;1874;-74
2023/09/26 13:20:11;;;;;;;;;;;;;;;19.78;100.00;96075.88;10530364;28;1877;-75
2023/09/26 13:25:20;;;;;;;;;;;;;;;19.86;100.00;96066.91;10528817;28;1986;-74
2023/09/26 13:30:28;;;;;;;;;;;;;;;20.06;100.00;96073.56;10514099;28;1880;-74
2023/09/26 13:40:51;;;;;;;;;;;;;;;19.94;100.00;96068.78;10520304;28;4766;-77
2023/09/26 13:45:59;;;;;;;;;;;;;;;19.82;100.00;96058.56;10528314;28;2039;-75
2023/09/26 13:51:05;;;;;;;;;;;;;;;19.90;100.00;96063.19;10492471;28;1966;-75
2023/09/26 13:56:10;;;;;;;;;;;;;;;19.94;100.00;96055.94;10529079;28;2002;-74
2023/09/26 14:01:18;;;;;;;;;;;;;;;19.94;100.00;96052.41;10494585;28;1932;-74
2023/09/26 14:06:22;;;;;;;;;;;;;;;19.99;100.00;96052.25;10509522;28;2159;-77
2023/09/26 14:11:26;;;;;;;;;;;;;;;19.95;100.00;96046.63;10511280;28;1824;-76
2023/09/26 14:16:35;;;;;;;;;;;;;;;20.03;100.00;96049.66;10525609;28;1856;-77
2023/09/26 14:21:39;;;;;;;;;;;;;;;19.86;100.00;96054.06;10501788;28;2523;-76
2023/09/26 14:26:44;;;;;;;;;;;;;;;19.90;100.00;96046.81;10505052;28;1926;-76
2023/09/26 14:31:47;;;;;;;;;;;;;;;19.88;100.00;96045.53;10507355;28;1876;-73
2023/09/26 14:36:58;;;;;;;;;;;;;;;19.82;100.00;96042.19;10524047;28;1926;-74
2023/09/26 14:42:04;;;;;;;;;;;;;;;19.82;100.00;96047.66;10526583;28;4631;-76
2023/09/26 14:47:09;;;;;;;;;;;;;;;19.87;100.00;96055.66;10529532;28;2020;-75
2023/09/26 14:52:18;;;;;;;;;;;;;;;19.74;100.00;96053.94;10518357;28;2073;-75
2023/09/26 14:57:23;;;;;;;;;;;;;;;19.73;100.00;96060.53;10526399;28;1884;-75
2023/09/26 15:02:29;;;;;;;;;;;;;;;19.70;100.00;96066.59;10511678;28;1944;-75
2023/09/26 15:07:35;;;;;;;;;;;;;;;19.83;100.00;96053.91;10521495;28;2552;-73
2023/09/26 15:12:39;;;;;;;;;;;;;;;19.70;100.00;96061.16;10493602;28;1887;-79
2023/09/26 15:17:43;;;;;;;;;;;;;;;19.62;100.00;96064.72;10520255;28;1808;-76
2023/09/26 15:22:49;;;;;;;;;;;;;;;19.53;100.00;96055.69;10528956;28;1915;-77
2023/09/26 15:28:00;;;;;;;;;;;;;;;19.47;100.00;96057.00;10505268;28;1981;-76
2023/09/26 15:33:03;;;;;;;;;;;;;;;19.52;100.00;96062.28;10506319;28;1918;-75
2023/09/26 15:38:08;;;;;;;;;;;;;;;19.49;100.00;96066.47;10517558;28;1889;-77
2023/09/26 15:43:16;;;;;;;;;;;;;;;19.51;100.00;96069.66;10505418;28;4680;-76
2023/09/26 15:48:20;;;;;;;;;;;;;;;19.41;100.00;96079.00;10508971;28;1927;-76
2023/09/26 15:53:31;;;;;;;;;;;;;;;19.27;100.00;96072.09;10509063;28;2591;-75
2023/09/26 15:58:37;;;;;;;;;;;;;;;19.22;100.00;96073.06;10487906;28;1898;-75
2023/09/26 16:03:41;;;;;;;;;;;;;;;19.06;100.00;96074.66;10522608;28;2000;-76
2023/09/26 16:08:49;;;;;;;;;;;;;;;18.98;100.00;96079.00;10507904;28;1945;-75
2023/09/26 16:13:54;;;;;;;;;;;;;;;18.94;100.00;96075.28;10520346;28;1883;-76
2023/09/26 16:18:59;;;;;;;;;;;;;;;18.86;100.00;96079.63;10520913;28;1905;-76
2023/09/26 16:24:07;;;;;;;;;;;;;;;18.75;100.00;96081.03;10515025;28;1917;-75
2023/09/26 16:29:11;;;;;;;;;;;;;;;18.65;100.00;96081.34;10522494;28;1976;-74
2023/09/26 16:34:15;;;;;;;;;;;;;;;18.50;100.00;96095.38;10520745;28;1879;-75
2023/09/26 16:39:18;;;;;;;;;;;;;;;18.44;100.00;96086.53;10513301;28;2872;-75
2023/09/26 16:44:27;;;;;;;;;;;;;;;18.31;100.00;96096.44;10495175;28;2097;-72
2023/09/26 16:49:33;;;;;;;;;;;;;;;18.08;100.00;96098.44;10532053;28;2019;-73
2023/09/26 16:54:37;;;;;;;;;;;;;;;17.80;100.00;96105.97;10511518;28;1912;-71
2023/09/26 16:59:43;;;;;;;;;;;;;;;17.74;100.00;96106.41;10511958;28;1945;-71
2023/09/26 17:04:47;;;;;;;;;;;;;;;17.61;100.00;96113.50;10525615;28;1921;-71
2023/09/26 17:09:57;;;;;;;;;;;;;;;17.39;100.00;96114.31;10525835;28;1910;-72
2023/09/26 17:15:01;;;;;;;;;;;;;;;17.21;100.00;96116.09;10508979;28;1912;-72
2023/09/26 17:20:07;;;;;;;;;;;;;;;17.07;100.00;96123.47;10526657;28;1903;-71
2023/09/26 17:25:16;;;;;;;;;;;;;;;16.89;100.00;96133.38;10507299;28;2651;-71
2023/09/26 17:30:22;;;;;;;;;;;;;;;16.83;100.00;96137.31;10527099;28;1905;-72
2023/09/26 17:35:27;;;;;;;;;;;;;;;16.71;100.00;96137.03;10526351;28;1876;-72
2023/09/26 17:40:35;;;;;;;;;;;;;;;16.56;100.00;96143.53;10523286;28;4539;-72
2023/09/26 17:45:40;;;;;;;;;;;;;;;16.47;100.00;96146.16;10524697;28;2071;-71
2023/09/26 17:50:48;;;;;;;;;;;;;;;16.35;100.00;96153.19;10526180;28;2008;-72
2023/09/26 17:55:53;;;;;;;;;;;;;;;16.29;100.00;96155.22;10504321;28;1879;-73
2023/09/26 18:00:58;;;;;;;;;;;;;;;16.21;100.00;96159.41;10510397;28;1859;-73
2023/09/26 18:06:03;;;;;;;;;;;;;;;16.12;100.00;96150.34;10513948;28;1847;-72
2023/09/26 18:11:06;;;;;;;;;;;;;;;16.02;100.00;96153.25;10507214;28;2959;-71
2023/09/26 18:16:12;;;;;;;;;;;;;;;15.98;100.00;96152.25;10492941;28;1903;-71
2023/09/26 18:21:18;;;;;;;;;;;;;;;15.87;100.00;96158.94;10509096;28;1857;-71
2023/09/26 18:26:22;;;;;;;;;;;;;;;15.83;100.00;96169.56;10510563;28;1971;-71
2023/09/26 18:31:27;;;;;;;;;;;;;;;15.73;100.00;96177.09;10525624;28;1437;-72
2023/09/26 18:36:32;;;;;;;;;;;;;;;15.68;100.00;96181.47;10506860;28;1778;-72
2023/09/26 18:41:37;;;;;;;;;;;;;;;15.56;100.00;96178.38;10527579;28;4606;-72
2023/09/26 18:46:42;;;;;;;;;;;;;;;15.50;100.00;96186.88;10510860;28;1910;-74
2023/09/26 18:51:46;;;;;;;;;;;;;;;15.44;100.00;96193.47;10526802;28;1501;-73
2023/09/26 18:56:50;;;;;;;;;;;;;;;15.27;100.00;96186.69;10525425;28;2565;-73
2023/09/26 19:01:53;;;;;;;;;;;;;;;15.22;100.00;96185.97;10507796;28;1831;-77
2023/09/26 19:07:02;;;;;;;;;;;;;;;15.13;100.00;96189.31;10509345;28;1918;-76
2023/09/26 19:12:24;;;;;;;;;;;;;;;15.03;100.00;96194.06;10526297;28;1520;-73
2023/09/26 19:17:30;;;;;;;;;;;;;;;14.97;100.00;96195.25;10508647;28;1499;-74
2023/09/26 19:22:36;;;;;;;;;;;;;;;14.90;100.00;96201.00;10528057;28;1424;-75
2023/09/26 19:27:44;;;;;;;;;;;;;;;14.76;100.00;96205.50;10505225;28;1914;-72
2023/09/26 19:32:50;;;;;;;;;;;;;;;14.72;100.00;96204.47;10525833;28;1547;-73
2023/09/26 19:37:54;;;;;;;;;;;;;;;14.63;100.00;96208.91;10507040;28;2612;-74
2023/09/26 19:42:59;;;;;;;;;;;;;;;14.54;100.00;96206.84;10524203;28;4559;-73
2023/09/26 19:48:07;;;;;;;;;;;;;;;14.47;100.00;96202.88;10525208;28;1979;-73
2023/09/26 19:53:13;;;;;;;;;;;;;;;14.44;100.00;96208.81;10524074;28;1835;-72
2023/09/26 19:58:16;;;;;;;;;;;;;;;14.40;100.00;96219.41;10523625;28;1602;-71
2023/09/26 20:03:21;;;;;;;;;;;;;;;14.37;100.00;96219.97;10502947;28;1517;-74
2023/09/26 20:08:27;;;;;;;;;;;;;;;14.36;100.00;96217.56;10522457;28;2026;-71
2023/09/26 20:13:31;;;;;;;;;;;;;;;14.30;100.00;96217.59;10522028;28;1895;-72
2023/09/26 20:18:39;;;;;;;;;;;;;;;14.22;100.00;96212.03;10508984;28;1882;-78
2023/09/26 20:23:53;;;;;;;;;;;;;;;14.11;100.00;96218.63;10519572;28;1878;-78
2023/09/26 20:29:01;;;;;;;;;;;;;;;13.99;100.00;96229.81;10525551;28;1979;-77
2023/09/26 20:34:12;;;;;;;;;;;;;;;13.90;100.00;96221.50;10528710;28;1864;-76
2023/09/26 20:39:27;;;;;;;;;;;;;;;13.86;100.00;96220.44;10527225;28;2834;-77
2023/09/26 20:44:38;;;;;;;;;;;;;;;13.83;100.00;96220.22;10530485;28;4587;-77
2023/09/26 20:49:41;;;;;;;;;;;;;;;13.78;100.00;96218.38;10512220;28;1914;-77
2023/09/26 20:54:48;;;;;;;;;;;;;;;13.65;100.00;96224.41;10509954;28;1910;-78
2023/09/26 20:59:56;;;;;;;;;;;;;;;13.66;100.00;96226.84;10512725;28;2080;-78
2023/09/26 21:05:23;;;;;;;;;;;;;;;13.65;100.00;96221.72;10513976;28;1827;-79
2023/09/26 21:10:33;;;;;;;;;;;;;;;13.62;100.00;96231.22;10528188;28;1918;-77
2023/09/26 21:15:36;;;;;;;;;;;;;;;13.59;100.00;96236.34;10527820;28;1861;-78
2023/09/26 21:20:45;;;;;;;;;;;;;;;13.52;100.00;96234.78;10512229;28;1853;-78
2023/09/26 21:25:58;;;;;;;;;;;;;;;13.52;100.00;96242.88;10511926;28;2905;-79
2023/09/26 21:31:19;;;;;;;;;;;;;;;13.45;100.00;96238.88;10527603;28;1906;-77
2023/09/26 21:36:33;;;;;;;;;;;;;;;13.39;100.00;96243.50;10508080;28;1877;-78
2023/09/26 21:41:37;;;;;;;;;;;;;;;13.32;100.00;96248.41;10507876;28;4659;-78
2023/09/26 21:46:47;;;;;;;;;;;;;;;13.30;100.00;96239.78;10526155;28;1838;-77
2023/09/26 21:51:50;;;;;;;;;;;;;;;13.25;100.00;96242.50;10526619;28;1990;-76
2023/09/26 21:57:00;;;;;;;;;;;;;;;13.24;100.00;96235.50;10506470;28;1840;-76
2023/09/26 22:02:06;;;;;;;;;;;;;;;13.19;100.00;96249.00;10519643;28;1714;-78
2023/09/26 22:07:15;;;;;;;;;;;;;;;13.13;100.00;96250.91;10507322;28;1910;-77
2023/09/26 22:12:21;;;;;;;;;;;;;;;13.05;100.00;96253.41;10527877;28;2780;-77
2023/09/26 22:17:31;;;;;;;;;;;;;;;12.97;100.00;96247.47;10526703;28;1778;-77
2023/09/26 22:22:44;;;;;;;;;;;;;;;12.91;100.00;96234.28;10507072;28;1889;-77
2023/09/26 22:27:55;;;;;;;;;;;;;;;12.91;100.00;96237.78;10489833;28;1937;-78
2023/09/26 22:33:18;;;;;;;;;;;;;;;12.83;100.00;96232.97;10508183;28;1839;-78
2023/09/26 22:38:24;;;;;;;;;;;;;;;12.82;100.00;96239.44;10504366;28;2204;-79
2023/09/26 22:43:34;;;;;;;;;;;;;;;12.78;100.00;96235.69;10526285;28;4650;-79
2023/09/26 22:48:38;;;;;;;;;;;;;;;12.67;100.00;96236.81;10486881;28;1914;-78
2023/09/26 22:53:45;;;;;;;;;;;;;;;12.63;100.00;96241.13;10504731;28;1881;-77
2023/09/26 22:58:55;;;;;;;;;;;;;;;12.60;100.00;96236.31;10528057;28;2379;-78
2023/09/26 23:04:03;;;;;;;;;;;;;;;12.48;100.00;96231.22;10506662;28;1853;-77
2023/09/26 23:09:14;;;;;;;;;;;;;;;12.42;100.00;96227.72;10525462;28;1987;-78
2023/09/26 23:14:20;;;;;;;;;;;;;;;12.30;100.00;96227.22;10524326;28;1941;-77
2023/09/26 23:19:26;;;;;;;;;;;;;;;12.26;100.00;96226.13;10529165;28;1773;-77
2023/09/26 23:24:35;;;;;;;;;;;;;;;12.23;100.00;96229.38;10504953;28;1862;-76
2023/09/26 23:29:40;;;;;;;;;;;;;;;12.13;100.00;96235.59;10504282;28;1988;-77
2023/09/26 23:34:57;;;;;;;;;;;;;;;12.08;100.00;96230.19;10505576;28;1847;-79
2023/09/26 23:45:31;;;;;;;;;;;;;;;12.01;100.00;96234.25;10516422;28;1866;-79
2023/09/26 23:50:41;;;;;;;;;;;;;;;11.95;100.00;96235.34;10515503;28;1910;-79
2023/09/26 23:55:46;;;;;;;;;;;;;;;11.91;100.00;96232.41;10509676;28;1914;-76
